New York, NY

00:20 EDT le 29 Mars 2015 (GMT -0400)
Flatiron | | Change Station
CLOSE
Current Station
Stations météorologiques personnelles
Location: New York, NY
Altitude: 207 ft
Stations météo à proximité

Alt. 207 ft 40.74 °N, 73.99 °W | Updated 17 seconds ago

Haze
Brume
27.3 ° F
Paraît 19 ° F
N
7.6
Vent Variable Vent de NNO
Gusts 9.8 mph

Aujourd'hui
Haut(e) -- | Bas -- ° F
--% Risque de précip.
Hier
Haut(e) -- | Bas -- ° F
Precip. -- pouce
6:44 AM 7:17 PM
Lune gibbeuse croissante, 68% visible
Pression 30.12 pouce
Visibilité 5.0 Miles terrestres
Nuages Peu 2300 ft
Couvert 4100 ft
Refroidissement éolien 19 ° F
Point de rosée 14 ° F
Humidité 56%
Précipitations 0.00 pouce
Profondeur de la couche neigeuse Non disponible.
UV 0.0 sur 12
Pollen 8.00 sur 12
Qualité de l'air Non disponible.
Flu Activity Non disponible.
METAR KNYC 290351Z AUTO 31009G17KT 5SM HZ FEW023 OVC041 M03/M08 A3014 RMK AO2 SLP198 T10281083 $

More Conditions Fewer Conditions

Pression 30.12 pouce
Visibilité 5.0 Miles terrestres
Nuages Peu 2300 ft
Couvert 4100 ft
Refroidissement éolien 19 ° F
Point de rosée 14 ° F
Humidité 56%
Précipitations 0.00 pouce
Profondeur de la couche neigeuse Non disponible.
UV 0.0 sur 12
Pollen 8.00 sur 12
Qualité de l'air Non disponible.
Flu Activity Non disponible.
METAR KNYC 290351Z AUTO 31009G17KT 5SM HZ FEW023 OVC041 M03/M08 A3014 RMK AO2 SLP198 T10281083 $

More Conditions Fewer Conditions

10-Day Weather Forecast

Almanac

Astronomie

Mar. 29, 2015 Lever Coucher
Temps réel
Crépuscule civil
Crépuscule nautique
Crépuscule astronomique
Lune
Durée de lumière visible
Longueur du jour
Tomorrow will be .
, % of the Moon is Illuminated

Extrêmes aujourd'hui

State Highs State Lows

Community

WunderPhotos

Upload Photos

1,809,182 Photos téléchargées !

WunderBlogs® & News

Nearby

Qualité de l'air

  Qualité de l'air Indice de la qualité de l'air Polluant
Not available.

Épaisseur de neige

Station Depth Altitude

Activité sismique

Ville Distance Mag. Time & Date
Minimum magnitude displayed is 2.5.

Températures des eaux côtières

Lieu Température

Stations

Stations météo à proximité

Emplacement de la station Température Refroidissement éolien Point de rosée Humidité Vent Precip. Alt. Mise à jour Type